Time;durP1;ratioP1;P1;durP2;ratioP2;P2;SDS_P1;SDS_P2;PMS_P1;PMS_P2;Temp;Humidity;BMP_temperature;BMP_pressure;BME280_temperature;BME280_humidity;BME280_pressure;Samples;Min_cycle;Max_cycle;Signal;HPM_P1;HPM_P2
2023/06/05 00:00:06;;;;;;;0.00;0.00;;;;;;;13.83;53.62;98682.50;4944323;28;20233;-62
2023/06/05 00:02:39;;;;;;;0.00;0.00;;;;;;;13.83;53.60;98685.94;4944701;28;20241;-62
2023/06/05 00:05:08;;;;;;;0.00;0.00;;;;;;;13.92;55.08;98683.28;4946724;28;20846;-62
2023/06/05 00:07:37;;;;;;;0.00;0.00;;;;;;;14.00;55.75;98683.25;4958931;28;20723;-62
2023/06/05 00:10:04;;;;;;;0.00;0.00;;;;;;;13.92;55.40;98678.84;4946812;28;20244;-62
2023/06/05 00:12:31;;;;;;;0.00;0.00;;;;;;;13.79;54.67;98671.53;4946732;28;20234;-62
2023/06/05 00:14:57;;;;;;;0.00;0.00;;;;;;;13.72;54.95;98681.06;4943607;28;20290;-62
2023/06/05 00:17:24;;;;;;;0.00;0.00;;;;;;;13.66;54.42;98674.72;4947091;28;20227;-62
2023/06/05 00:19:51;;;;;;;0.00;0.00;;;;;;;13.69;54.66;98670.91;4944337;28;20704;-62
2023/06/05 00:22:19;;;;;;;0.00;0.00;;;;;;;13.73;56.16;98675.66;4946598;28;20317;-62
2023/06/05 00:24:46;;;;;;;0.00;0.00;;;;;;;13.66;54.77;98674.72;4943973;28;20309;-62
2023/06/05 00:27:12;;;;;;;0.00;0.00;;;;;;;13.65;54.86;98667.81;4946886;28;20237;-62
2023/06/05 00:29:44;;;;;;;0.00;0.00;;;;;;;13.61;54.77;98670.94;4929577;28;20272;-63
2023/06/05 00:32:11;;;;;;;0.00;0.00;;;;;;;13.56;55.68;98660.97;4945158;28;20292;-63
2023/06/05 00:34:42;;;;;;;0.00;0.00;;;;;;;13.51;55.35;98661.47;4942031;28;20305;-63
2023/06/05 00:37:09;;;;;;;0.00;0.00;;;;;;;13.59;56.38;98660.63;4961193;28;20285;-63
2023/06/05 00:39:37;;;;;;;0.00;0.00;;;;;;;13.52;54.80;98654.44;4957328;28;20622;-62
2023/06/05 00:42:03;;;;;;;0.00;0.00;;;;;;;13.51;54.24;98656.22;4946686;28;20300;-62
2023/06/05 00:44:30;;;;;;;0.00;0.00;;;;;;;13.47;54.70;98657.53;4959921;28;20234;-62
2023/06/05 00:46:57;;;;;;;0.00;0.00;;;;;;;13.54;54.23;98650.63;4944085;28;20230;-62
2023/06/05 00:49:23;;;;;;;0.00;0.00;;;;;;;13.53;54.45;98654.25;4946656;28;20234;-62
2023/06/05 00:51:51;;;;;;;0.00;0.00;;;;;;;13.49;53.97;98660.81;4943121;28;20289;-62
2023/06/05 00:54:18;;;;;;;0.00;0.00;;;;;;;13.51;53.95;98663.28;4945556;28;20627;-62
2023/06/05 00:56:46;;;;;;;0.00;0.00;;;;;;;13.50;53.83;98659.81;4958706;28;20327;-62
2023/06/05 00:59:13;;;;;;;0.00;0.00;;;;;;;13.56;54.71;98661.78;4961323;28;20248;-62
2023/06/05 01:01:42;;;;;;;0.00;0.00;;;;;;;13.60;53.88;98656.19;4958061;28;20333;-62
2023/06/05 01:04:09;;;;;;;0.00;0.00;;;;;;;13.56;55.55;98659.16;4960914;28;20230;-62
2023/06/05 01:06:40;;;;;;;0.00;0.00;;;;;;;13.50;55.80;98653.78;4960001;28;20230;-62
2023/06/05 01:09:08;;;;;;;0.00;0.00;;;;;;;13.51;57.50;98664.09;4964643;28;20321;-62
2023/06/05 01:11:40;;;;;;;0.00;0.00;;;;;;;13.43;56.23;98657.06;4947343;28;20259;-62
2023/06/05 01:14:16;;;;;;;0.00;0.00;;;;;;;13.41;55.59;98658.19;4948399;28;20765;-62
2023/06/05 01:16:45;;;;;;;0.00;0.00;;;;;;;13.40;56.96;98657.38;4961210;28;20768;-62
2023/06/05 01:19:15;;;;;;;0.00;0.00;;;;;;;13.36;56.68;98652.63;4964152;28;20234;-62
2023/06/05 01:21:41;;;;;;;0.00;0.00;;;;;;;13.34;58.18;98651.97;4947255;28;20238;-62
2023/06/05 01:24:13;;;;;;;0.00;0.00;;;;;;;13.29;57.50;98655.13;4949771;28;20632;-62
2023/06/05 01:26:52;;;;;;;0.00;0.00;;;;;;;13.27;58.47;98650.03;4947356;28;20241;-62
2023/06/05 01:29:24;;;;;;;0.00;0.00;;;;;;;13.19;59.32;98652.69;4938620;29;20225;-62
2023/06/05 01:31:56;;;;;;;0.00;0.00;;;;;;;13.20;59.77;98651.72;4961640;28;20261;-62
2023/06/05 01:34:24;;;;;;;0.00;0.00;;;;;;;13.17;58.63;98645.97;4964305;28;20315;-62
2023/06/05 01:36:52;;;;;;;0.00;0.00;;;;;;;13.07;59.45;98644.34;4960924;28;20709;-62
2023/06/05 01:39:21;;;;;;;0.00;0.00;;;;;;;13.02;59.89;98637.97;4963980;28;20231;-62
2023/06/05 01:41:49;;;;;;;0.00;0.00;;;;;;;12.98;60.73;98637.47;4945189;28;20817;-62
2023/06/05 01:44:17;;;;;;;0.00;0.00;;;;;;;12.92;60.49;98636.34;4963111;28;20291;-62
2023/06/05 01:46:44;;;;;;;0.00;0.00;;;;;;;12.88;61.07;98636.81;4960355;28;20292;-62
2023/06/05 01:49:12;;;;;;;0.00;0.00;;;;;;;12.84;61.56;98631.91;4947357;28;20232;-62
2023/06/05 01:51:38;;;;;;;0.00;0.00;;;;;;;12.86;61.27;98634.38;4946222;28;20240;-62
2023/06/05 01:54:05;;;;;;;0.00;0.00;;;;;;;12.80;62.10;98633.22;4948174;28;20292;-62
2023/06/05 01:56:36;;;;;;;0.00;0.00;;;;;;;12.75;61.50;98634.72;4946432;28;20226;-62
2023/06/05 01:59:06;;;;;;;0.00;0.00;;;;;;;12.72;62.06;98633.22;4961387;28;20236;-62
2023/06/05 02:01:34;;;;;;;0.00;0.00;;;;;;;12.68;62.36;98631.97;4945264;28;20233;-62
2023/06/05 02:04:04;;;;;;;0.00;0.00;;;;;;;12.62;62.47;98630.00;4963523;28;20699;-62
2023/06/05 02:06:35;;;;;;;0.00;0.00;;;;;;;12.54;63.07;98638.66;4948565;28;20673;-62
2023/06/05 02:09:02;;;;;;;0.00;0.00;;;;;;;12.55;64.78;98630.66;4945244;28;20236;-62
2023/06/05 02:11:29;;;;;;;0.00;0.00;;;;;;;12.51;65.03;98637.19;4947216;28;20229;-62
2023/06/05 02:13:59;;;;;;;0.00;0.00;;;;;;;12.46;63.02;98641.25;4946008;28;20228;-62
2023/06/05 02:16:26;;;;;;;0.00;0.00;;;;;;;12.37;64.72;98636.00;4952390;28;20238;-62
2023/06/05 02:18:53;;;;;;;0.00;0.00;;;;;;;12.33;65.07;98641.75;4960242;28;20233;-62
2023/06/05 02:21:20;;;;;;;0.00;0.00;;;;;;;12.28;65.02;98633.56;4963912;28;20240;-62
2023/06/05 02:23:49;;;;;;;0.00;0.00;;;;;;;12.22;65.74;98638.47;4960492;28;20764;-62
2023/06/05 02:26:17;;;;;;;0.00;0.00;;;;;;;12.19;65.96;98643.22;4946400;28;20575;-62
2023/06/05 02:28:44;;;;;;;0.00;0.00;;;;;;;12.11;65.76;98641.38;4945581;28;20244;-62
2023/06/05 02:31:16;;;;;;;0.00;0.00;;;;;;;12.02;66.61;98639.72;4963054;28;20245;-62
2023/06/05 02:33:43;;;;;;;0.00;0.00;;;;;;;11.92;66.45;98638.03;4943988;28;20324;-62
2023/06/05 02:36:09;;;;;;;0.00;0.00;;;;;;;11.87;67.06;98642.91;4948592;28;20628;-62
2023/06/05 02:38:38;;;;;;;0.00;0.00;;;;;;;11.80;66.97;98647.97;4944514;28;20236;-62
2023/06/05 02:41:04;;;;;;;0.00;0.00;;;;;;;11.79;68.79;98645.50;4946602;28;20335;-62
2023/06/05 02:43:31;;;;;;;0.00;0.00;;;;;;;11.73;69.17;98646.13;4962903;28;20283;-62
2023/06/05 02:45:58;;;;;;;0.00;0.00;;;;;;;11.63;69.13;98641.88;4944775;28;20327;-62
2023/06/05 02:48:26;;;;;;;0.00;0.00;;;;;;;11.58;68.64;98644.13;4946679;28;20232;-62
2023/06/05 02:50:55;;;;;;;0.00;0.00;;;;;;;11.55;69.27;98643.63;4958500;28;20251;-62
2023/06/05 02:53:22;;;;;;;0.00;0.00;;;;;;;11.52;69.68;98648.19;4962247;28;20261;-62
2023/06/05 02:55:49;;;;;;;0.00;0.00;;;;;;;11.47;70.01;98637.38;4959589;28;20240;-62
2023/06/05 02:58:17;;;;;;;0.00;0.00;;;;;;;11.44;70.83;98635.06;4947005;28;20701;-62
2023/06/05 03:03:53;;;;;;;0.00;0.00;;;;;;;11.36;70.09;98638.47;5686015;23;20249;-63
2023/06/05 03:06:27;;;;;;;0.00;0.00;;;;;;;11.36;70.89;98643.69;4959886;28;20228;-62
2023/06/05 03:08:55;;;;;;;0.00;0.00;;;;;;;11.31;70.80;98640.72;4960070;28;20803;-62
2023/06/05 03:11:24;;;;;;;0.00;0.00;;;;;;;11.29;70.03;98652.31;4946528;28;20232;-62
2023/06/05 03:13:51;;;;;;;0.00;0.00;;;;;;;11.27;70.26;98652.47;4938204;28;20260;-62
2023/06/05 03:16:18;;;;;;;0.00;0.00;;;;;;;11.21;71.15;98648.66;4951799;28;20708;-62
2023/06/05 03:18:49;;;;;;;0.00;0.00;;;;;;;11.21;71.98;98650.47;4949877;28;20236;-62
2023/06/05 03:21:17;;;;;;;0.00;0.00;;;;;;;11.18;71.59;98658.63;4952975;28;20625;-62
2023/06/05 03:23:44;;;;;;;0.00;0.00;;;;;;;11.17;70.59;98655.16;4930511;28;20639;-62
2023/06/05 03:26:13;;;;;;;0.00;0.00;;;;;;;11.16;70.75;98657.94;4951233;28;20233;-62
2023/06/05 03:28:42;;;;;;;0.00;0.00;;;;;;;11.16;71.89;98657.94;4947342;28;20850;-62
2023/06/05 03:31:11;;;;;;;0.00;0.00;;;;;;;11.13;72.24;98653.84;5139071;23;20230;-63
2023/06/05 03:33:42;;;;;;;0.00;0.00;;;;;;;11.12;74.25;98652.22;4953979;28;20332;-62
2023/06/05 03:36:09;;;;;;;0.00;0.00;;;;;;;11.11;72.77;98654.97;4960375;28;20226;-62
2023/06/05 03:38:38;;;;;;;0.00;0.00;;;;;;;11.06;72.91;98658.88;4961849;28;20226;-62
2023/06/05 03:41:04;;;;;;;0.00;0.00;;;;;;;11.03;74.16;98653.94;4953894;28;20239;-62
2023/06/05 03:43:31;;;;;;;0.00;0.00;;;;;;;11.13;74.44;98651.22;4945600;29;20247;-62
2023/06/05 03:45:58;;;;;;;0.00;0.00;;;;;;;11.13;74.21;98653.03;4959508;28;20629;-62
2023/06/05 03:48:26;;;;;;;0.00;0.00;;;;;;;11.21;74.57;98660.91;4962034;28;20236;-62
2023/06/05 03:50:55;;;;;;;0.00;0.00;;;;;;;11.22;74.66;98652.91;4958213;28;20600;-62
2023/06/05 03:53:22;;;;;;;0.00;0.00;;;;;;;11.22;74.39;98652.91;4945570;29;20245;-62
2023/06/05 03:55:52;;;;;;;0.00;0.00;;;;;;;11.21;74.33;98656.50;4942995;28;20382;-62
2023/06/05 03:58:26;;;;;;;0.00;0.00;;;;;;;11.35;74.47;98662.97;4945779;29;20310;-62
2023/06/05 04:00:54;;;;;;;0.00;0.00;;;;;;;11.37;74.65;98662.81;4959006;28;20241;-62
2023/06/05 04:03:21;;;;;;;0.00;0.00;;;;;;;11.43;75.83;98662.19;4943676;29;20325;-62
2023/06/05 04:05:50;;;;;;;0.00;0.00;;;;;;;11.50;75.23;98675.47;4958970;28;20240;-62
2023/06/05 04:08:17;;;;;;;0.00;0.00;;;;;;;11.53;74.12;98667.31;4947039;28;20245;-62
2023/06/05 04:10:43;;;;;;;0.00;0.00;;;;;;;11.57;73.77;98671.25;4958148;28;20235;-62
2023/06/05 04:13:12;;;;;;;0.00;0.00;;;;;;;11.59;74.43;98671.09;4961443;28;20234;-62
2023/06/05 04:15:39;;;;;;;0.00;0.00;;;;;;;11.59;75.12;98674.53;4959111;28;20236;-62
2023/06/05 04:18:07;;;;;;;0.00;0.00;;;;;;;11.58;76.36;98672.91;4961604;28;20231;-62
2023/06/05 04:20:33;;;;;;;0.00;0.00;;;;;;;11.56;76.61;98672.22;4944063;28;20730;-62
2023/06/05 04:23:00;;;;;;;0.00;0.00;;;;;;;11.55;76.21;98675.81;4945262;28;20244;-62
2023/06/05 04:25:28;;;;;;;0.00;0.00;;;;;;;11.55;75.87;98680.22;4961219;28;20270;-62
2023/06/05 04:27:57;;;;;;;0.00;0.00;;;;;;;11.56;77.14;98680.06;4958589;28;20234;-62
2023/06/05 04:30:25;;;;;;;0.00;0.00;;;;;;;11.50;77.70;98678.88;4961422;28;20292;-62
2023/06/05 04:32:54;;;;;;;0.00;0.00;;;;;;;11.53;76.37;98685.59;4957269;28;20258;-62
2023/06/05 04:35:22;;;;;;;0.00;0.00;;;;;;;11.55;76.70;98681.03;4961461;28;20233;-62
2023/06/05 04:37:50;;;;;;;0.00;0.00;;;;;;;11.55;79.00;98690.66;4942719;28;20282;-62
2023/06/05 04:40:20;;;;;;;0.00;0.00;;;;;;;11.54;78.01;98678.56;4961290;28;20240;-62
2023/06/05 04:42:48;;;;;;;0.00;0.00;;;;;;;11.48;77.87;98683.44;4948139;28;20716;-62
2023/06/05 04:45:16;;;;;;;0.00;0.00;;;;;;;11.51;76.41;98683.13;4949404;29;20307;-62
2023/06/05 04:47:47;;;;;;;0.00;0.00;;;;;;;11.53;77.27;98688.22;4961869;28;20228;-62
2023/06/05 04:50:24;;;;;;;0.00;0.00;;;;;;;11.55;78.00;98693.28;4950602;28;20224;-62
2023/06/05 04:52:52;;;;;;;0.00;0.00;;;;;;;11.59;79.50;98695.44;4962040;28;20260;-62
2023/06/05 04:55:19;;;;;;;0.00;0.00;;;;;;;11.64;78.35;98694.97;4949163;29;20240;-62
2023/06/05 04:57:46;;;;;;;0.00;0.00;;;;;;;11.64;79.04;98693.19;4961432;28;20755;-63
2023/06/05 05:00:14;;;;;;;0.00;0.00;;;;;;;11.69;78.04;98703.16;4948725;29;20247;-62
2023/06/05 05:02:41;;;;;;;0.00;0.00;;;;;;;11.72;79.77;98697.63;4962192;28;20247;-62
2023/06/05 05:05:13;;;;;;;0.00;0.00;;;;;;;11.78;78.46;98697.00;4961869;28;20246;-63
2023/06/05 05:07:42;;;;;;;0.00;0.00;;;;;;;11.85;78.18;98702.41;4944924;28;20228;-63
2023/06/05 05:10:09;;;;;;;0.00;0.00;;;;;;;11.92;77.55;98697.38;4948792;29;20244;-62
2023/06/05 05:12:37;;;;;;;0.00;0.00;;;;;;;11.99;76.99;98703.63;4961895;28;20237;-62
2023/06/05 05:15:05;;;;;;;0.00;0.00;;;;;;;12.09;76.01;98703.50;4964571;28;20231;-62
2023/06/05 05:17:31;;;;;;;0.00;0.00;;;;;;;12.17;76.12;98708.78;4964900;28;20244;-62
2023/06/05 05:19:58;;;;;;;0.00;0.00;;;;;;;12.23;75.97;98707.31;4961852;28;20713;-62
2023/06/05 05:22:27;;;;;;;0.00;0.00;;;;;;;12.29;77.27;98711.09;4948229;28;20267;-62
2023/06/05 05:24:56;;;;;;;0.00;0.00;;;;;;;12.36;77.00;98712.91;4961725;28;20678;-62
2023/06/05 05:27:24;;;;;;;0.00;0.00;;;;;;;12.44;76.74;98712.13;4948692;29;20234;-62
2023/06/05 05:29:51;;;;;;;0.00;0.00;;;;;;;12.50;75.89;98710.63;4961642;28;20222;-62
2023/06/05 05:32:18;;;;;;;0.00;0.00;;;;;;;12.57;75.87;98711.63;4946863;28;20737;-62
2023/06/05 05:34:45;;;;;;;0.00;0.00;;;;;;;12.64;76.45;98711.81;4944265;28;20234;-62
2023/06/05 05:37:13;;;;;;;0.00;0.00;;;;;;;12.73;74.94;98710.03;4964372;28;20236;-62
2023/06/05 05:39:46;;;;;;;0.00;0.00;;;;;;;12.77;75.77;98714.75;4945200;28;20237;-62
2023/06/05 05:42:12;;;;;;;0.00;0.00;;;;;;;13.08;76.20;98718.53;4963883;28;20239;-62
2023/06/05 05:44:45;;;;;;;0.00;0.00;;;;;;;13.37;75.38;98715.41;4961339;28;20292;-62
2023/06/05 05:47:11;;;;;;;0.00;0.00;;;;;;;13.60;71.93;98712.09;4949794;28;20234;-62
2023/06/05 05:50:03;;;;;;;0.00;0.00;;;;;;;13.90;70.32;98720.19;4945799;28;20230;-62
2023/06/05 05:52:30;;;;;;;0.00;0.00;;;;;;;14.12;69.50;98725.66;4948850;28;20325;-62
2023/06/05 05:54:59;;;;;;;0.00;0.00;;;;;;;14.38;68.22;98727.19;4960557;28;20241;-62
2023/06/05 05:57:27;;;;;;;0.00;0.00;;;;;;;14.61;67.26;98724.56;4946743;28;20298;-62
2023/06/05 05:59:54;;;;;;;0.00;0.00;;;;;;;14.85;66.39;98735.94;4946746;28;20349;-62
2023/06/05 06:02:21;;;;;;;0.00;0.00;;;;;;;15.05;66.50;98728.38;4948820;28;20242;-62
2023/06/05 06:04:48;;;;;;;0.00;0.00;;;;;;;15.23;65.59;98728.06;4946630;28;20231;-62
2023/06/05 06:07:15;;;;;;;0.00;0.00;;;;;;;15.41;64.12;98726.91;4949341;28;20268;-62
2023/06/05 06:09:46;;;;;;;0.00;0.00;;;;;;;15.59;63.97;98726.56;4946187;28;20317;-62
2023/06/05 06:12:13;;;;;;;0.00;0.00;;;;;;;15.79;65.20;98727.66;4949257;28;20461;-62
2023/06/05 06:14:45;;;;;;;0.00;0.00;;;;;;;15.99;63.02;98726.31;4945405;28;20230;-62
2023/06/05 06:17:12;;;;;;;0.00;0.00;;;;;;;16.14;61.29;98727.13;4948998;28;20235;-62
2023/06/05 06:19:45;;;;;;;0.00;0.00;;;;;;;16.28;57.56;98724.63;4946192;28;20793;-62
2023/06/05 06:22:12;;;;;;;0.00;0.00;;;;;;;16.47;60.18;98742.47;4949062;28;20240;-62
2023/06/05 06:24:45;;;;;;;0.00;0.00;;;;;;;16.57;57.96;98739.53;4945924;28;20235;-62
2023/06/05 06:27:12;;;;;;;0.00;0.00;;;;;;;16.67;55.18;98741.84;4948593;28;20799;-62
2023/06/05 06:29:52;;;;;;;0.00;0.00;;;;;;;16.72;56.72;98746.56;4946287;28;20707;-62
2023/06/05 06:32:19;;;;;;;0.00;0.00;;;;;;;16.85;55.63;98736.16;4948722;28;20246;-62
2023/06/05 06:34:45;;;;;;;0.00;0.00;;;;;;;16.93;58.36;98735.19;4946130;28;20222;-62
2023/06/05 06:37:14;;;;;;;0.00;0.00;;;;;;;17.06;55.09;98740.63;4948760;28;20231;-62
2023/06/05 06:39:45;;;;;;;0.00;0.00;;;;;;;17.22;57.62;98744.00;4945962;28;20237;-62
2023/06/05 06:42:12;;;;;;;0.00;0.00;;;;;;;17.23;57.24;98746.44;4948536;28;20232;-62
2023/06/05 06:44:57;;;;;;;0.00;0.00;;;;;;;17.38;55.12;98753.44;4959352;28;20248;-62
2023/06/05 06:47:25;;;;;;;0.00;0.00;;;;;;;17.61;52.90;98745.25;4948164;28;20235;-62
2023/06/05 06:49:52;;;;;;;0.00;0.00;;;;;;;17.49;52.34;98755.56;4945740;28;20936;-62
2023/06/05 06:52:19;;;;;;;0.00;0.00;;;;;;;17.60;54.70;98750.75;4948051;28;20675;-62
2023/06/05 06:54:46;;;;;;;0.00;0.00;;;;;;;17.78;52.12;98752.88;4959312;28;20702;-62
2023/06/05 06:57:13;;;;;;;0.00;0.00;;;;;;;17.59;51.99;98755.19;4948287;28;20945;-62
2023/06/05 06:59:45;;;;;;;0.00;0.00;;;;;;;17.82;51.61;98754.94;4945616;28;20657;-62
2023/06/05 07:02:15;;;;;;;0.00;0.00;;;;;;;17.83;51.69;98758.38;4948268;28;20249;-62
2023/06/05 07:04:45;;;;;;;0.00;0.00;;;;;;;17.98;51.25;98756.44;4944179;28;20245;-62
2023/06/05 07:07:13;;;;;;;0.00;0.00;;;;;;;17.96;51.50;98765.59;4947728;28;20237;-62
2023/06/05 07:09:46;;;;;;;0.00;0.00;;;;;;;18.05;51.89;98760.97;4945108;28;20633;-62
2023/06/05 07:12:15;;;;;;;0.00;0.00;;;;;;;18.03;52.35;98757.72;4948152;28;20236;-62
2023/06/05 07:14:45;;;;;;;0.00;0.00;;;;;;;18.19;50.03;98759.19;4945195;28;20229;-62
2023/06/05 07:17:13;;;;;;;0.00;0.00;;;;;;;18.29;49.91;98757.84;4947673;28;20245;-62
2023/06/05 07:19:45;;;;;;;0.00;0.00;;;;;;;18.37;49.30;98756.84;4945286;28;20236;-62
2023/06/05 07:22:11;;;;;;;0.00;0.00;;;;;;;18.45;49.00;98750.56;4947064;28;20287;-62
2023/06/05 07:25:04;;;;;;;0.00;0.00;;;;;;;18.46;48.89;98756.66;4944599;28;20240;-63
2023/06/05 07:27:31;;;;;;;0.00;0.00;;;;;;;18.52;49.41;98758.50;4947806;28;20240;-63
2023/06/05 07:29:57;;;;;;;0.00;0.00;;;;;;;18.62;50.20;98758.09;4944632;28;20233;-63
2023/06/05 07:32:25;;;;;;;0.00;0.00;;;;;;;18.68;50.26;98763.44;4946948;28;20243;-63
2023/06/05 07:34:52;;;;;;;0.00;0.00;;;;;;;18.76;50.27;98761.63;4943098;28;20294;-63
2023/06/05 07:37:19;;;;;;;0.00;0.00;;;;;;;18.86;49.92;98760.19;4947597;28;20301;-63
2023/06/05 07:39:47;;;;;;;0.00;0.00;;;;;;;18.90;50.02;98763.25;4945089;28;20327;-63
2023/06/05 07:42:13;;;;;;;0.00;0.00;;;;;;;18.79;50.18;98758.56;4947599;28;20341;-63
2023/06/05 07:44:45;;;;;;;0.00;0.00;;;;;;;18.90;50.30;98757.97;4944602;28;20255;-63
2023/06/05 07:47:11;;;;;;;0.00;0.00;;;;;;;18.78;49.10;98755.09;4947073;28;20660;-63
2023/06/05 07:50:06;;;;;;;0.00;0.00;;;;;;;18.76;49.39;98759.75;4943834;28;20230;-63
2023/06/05 07:52:32;;;;;;;0.00;0.00;;;;;;;18.67;49.52;98753.88;4946894;28;20237;-63
2023/06/05 07:54:59;;;;;;;0.00;0.00;;;;;;;18.82;50.17;98758.97;4943923;28;20258;-63
2023/06/05 07:57:27;;;;;;;0.00;0.00;;;;;;;18.96;49.71;98759.84;4947435;28;20714;-63
2023/06/05 07:59:54;;;;;;;0.00;0.00;;;;;;;19.14;50.71;98756.59;4944482;28;20246;-63
2023/06/05 08:02:21;;;;;;;0.00;0.00;;;;;;;19.25;49.20;98757.78;4947350;28;20645;-63
2023/06/05 08:04:48;;;;;;;0.00;0.00;;;;;;;19.27;50.02;98753.13;4944217;28;20241;-63
2023/06/05 08:07:15;;;;;;;0.00;0.00;;;;;;;19.41;51.72;98767.16;4947309;28;20237;-63
2023/06/05 08:09:44;;;;;;;0.00;0.00;;;;;;;19.57;51.46;98754.53;4944824;28;20237;-63
2023/06/05 08:12:11;;;;;;;0.00;0.00;;;;;;;19.55;49.88;98754.72;4946597;28;20330;-63
2023/06/05 08:15:03;;;;;;;0.00;0.00;;;;;;;19.77;49.73;98759.78;4943310;28;20242;-63
2023/06/05 08:17:30;;;;;;;0.00;0.00;;;;;;;19.85;48.67;98751.59;4946014;28;20236;-63
2023/06/05 08:19:57;;;;;;;0.00;0.00;;;;;;;19.87;47.42;98751.38;4944121;28;20634;-63
2023/06/05 08:22:25;;;;;;;0.00;0.00;;;;;;;19.86;50.04;98745.28;4946650;28;20312;-63
2023/06/05 08:24:53;;;;;;;0.00;0.00;;;;;;;19.87;47.69;98741.63;4943958;28;20239;-63
2023/06/05 08:27:20;;;;;;;0.00;0.00;;;;;;;19.78;49.04;98742.88;4946766;28;20231;-63
2023/06/05 08:29:46;;;;;;;0.00;0.00;;;;;;;19.70;49.38;98738.59;4944237;28;20237;-63
2023/06/05 08:32:13;;;;;;;0.00;0.00;;;;;;;19.98;48.42;98745.47;4946307;28;20289;-63
2023/06/05 08:34:45;;;;;;;0.00;0.00;;;;;;;19.88;48.78;98730.00;4943988;28;20929;-63
2023/06/05 08:37:11;;;;;;;0.00;0.00;;;;;;;20.04;49.20;98738.53;4946811;28;20292;-63
2023/06/05 08:40:10;;;;;;;0.00;0.00;;;;;;;20.21;48.80;98730.91;4944384;28;20322;-63
2023/06/05 08:42:38;;;;;;;0.00;0.00;;;;;;;20.24;49.02;98732.31;4943599;28;20222;-63
2023/06/05 08:45:06;;;;;;;0.00;0.00;;;;;;;20.44;48.69;98729.56;4946361;28;20716;-63
2023/06/05 08:47:32;;;;;;;0.00;0.00;;;;;;;20.52;47.84;98729.31;4946897;28;20748;-63
2023/06/05 08:50:04;;;;;;;0.00;0.00;;;;;;;20.70;46.96;98727.75;4944172;28;20227;-63
2023/06/05 08:52:35;;;;;;;0.00;0.00;;;;;;;20.87;47.39;98726.25;4946557;28;20266;-63
2023/06/05 08:55:03;;;;;;;0.00;0.00;;;;;;;21.01;46.97;98728.81;4943317;28;20235;-63
2023/06/05 08:57:32;;;;;;;0.00;0.00;;;;;;;21.02;46.76;98720.63;4946781;28;20223;-63
2023/06/05 09:00:00;;;;;;;0.00;0.00;;;;;;;21.18;46.25;98726.44;4940203;28;20692;-63
2023/06/05 09:02:26;;;;;;;0.00;0.00;;;;;;;21.17;46.58;98719.50;4946087;28;20308;-63
2023/06/05 09:04:53;;;;;;;0.00;0.00;;;;;;;21.31;46.28;98720.97;4958744;28;20230;-64
2023/06/05 09:07:20;;;;;;;0.00;0.00;;;;;;;21.36;45.32;98723.00;4946516;28;20278;-63
2023/06/05 09:09:46;;;;;;;0.00;0.00;;;;;;;21.43;45.39;98715.78;4943145;28;20233;-63
2023/06/05 09:12:13;;;;;;;0.00;0.00;;;;;;;21.61;44.85;98717.63;4945971;28;20243;-63
2023/06/05 09:14:46;;;;;;;0.00;0.00;;;;;;;21.65;45.87;98716.19;4942965;28;20321;-63
2023/06/05 09:17:14;;;;;;;0.00;0.00;;;;;;;21.81;44.42;98712.09;4945955;28;20715;-63
2023/06/05 09:19:47;;;;;;;0.00;0.00;;;;;;;21.91;45.24;98710.78;4943969;28;20322;-63
2023/06/05 09:22:14;;;;;;;0.00;0.00;;;;;;;22.08;45.29;98713.66;4945961;28;20743;-63
2023/06/05 09:24:57;;;;;;;0.00;0.00;;;;;;;22.21;42.36;98707.34;4943252;28;20421;-63
2023/06/05 09:27:24;;;;;;;0.00;0.00;;;;;;;22.37;42.23;98711.22;4946971;28;20240;-63
2023/06/05 09:30:03;;;;;;;0.00;0.00;;;;;;;22.25;41.53;98704.03;4946895;28;20319;-63
2023/06/05 09:32:30;;;;;;;0.00;0.00;;;;;;;22.41;41.08;98704.41;4949589;28;20235;-63
2023/06/05 09:35:00;;;;;;;0.00;0.00;;;;;;;22.64;41.00;98702.88;4946396;28;20233;-63
2023/06/05 09:37:35;;;;;;;0.00;0.00;;;;;;;22.68;41.94;98704.03;4949880;28;20588;-63
2023/06/05 09:40:01;;;;;;;0.00;0.00;;;;;;;22.64;41.70;98695.72;4947078;28;20236;-63
2023/06/05 09:42:37;;;;;;;0.00;0.00;;;;;;;22.73;41.88;98698.84;4947833;28;20292;-63
2023/06/05 09:45:06;;;;;;;0.00;0.00;;;;;;;22.84;42.16;98694.56;4946531;28;20223;-63
2023/06/05 09:47:32;;;;;;;0.00;0.00;;;;;;;22.89;41.67;98691.25;4949372;28;20248;-63
2023/06/05 09:49:59;;;;;;;0.00;0.00;;;;;;;23.00;42.03;98703.75;4946544;28;20238;-63
2023/06/05 09:52:26;;;;;;;0.00;0.00;;;;;;;22.97;41.82;98702.34;4949184;28;20241;-63
2023/06/05 09:54:56;;;;;;;0.00;0.00;;;;;;;22.89;42.22;98691.25;4946206;28;20241;-63
2023/06/05 09:57:26;;;;;;;0.00;0.00;;;;;;;23.05;41.96;98682.56;4949207;28;20251;-63
2023/06/05 09:59:54;;;;;;;0.00;0.00;;;;;;;23.27;42.96;98687.34;4946871;28;20581;-63
2023/06/05 10:02:25;;;;;;;0.00;0.00;;;;;;;23.44;41.84;98682.91;4948895;28;20241;-63
2023/06/05 10:05:00;;;;;;;0.00;0.00;;;;;;;23.20;40.79;98691.97;4946302;28;20234;-63
2023/06/05 10:07:28;;;;;;;0.00;0.00;;;;;;;23.18;41.00;98686.84;4948973;28;20240;-63
2023/06/05 10:09:55;;;;;;;0.00;0.00;;;;;;;23.41;40.44;98687.91;4946413;28;20766;-63
2023/06/05 10:12:26;;;;;;;0.00;0.00;;;;;;;23.27;40.70;98682.81;4948823;28;20221;-63
2023/06/05 10:14:55;;;;;;;0.00;0.00;;;;;;;23.43;41.18;98678.63;4946337;28;21562;-63
2023/06/05 10:17:24;;;;;;;0.00;0.00;;;;;;;23.35;40.38;98686.97;4948639;28;20227;-63
2023/06/05 10:19:51;;;;;;;0.00;0.00;;;;;;;23.31;40.50;98679.69;4946484;28;20226;-63
2023/06/05 10:22:18;;;;;;;0.00;0.00;;;;;;;23.29;40.69;98670.09;4949029;28;20296;-63
2023/06/05 10:24:51;;;;;;;0.00;0.00;;;;;;;23.48;39.63;98669.13;4945352;28;20229;-63
2023/06/05 10:27:51;;;;;;;0.00;0.00;;;;;;;23.53;40.36;98672.72;4948196;28;20711;-63
2023/06/05 10:30:40;;;;;;;0.00;0.00;;;;;;;23.61;41.16;98666.22;4946478;28;20291;-63
2023/06/05 10:33:26;;;;;;;0.00;0.00;;;;;;;23.89;41.39;98672.63;4945921;28;20240;-63
2023/06/05 10:36:02;;;;;;;0.00;0.00;;;;;;;23.84;40.02;98670.69;4943175;28;20728;-63
2023/06/05 10:38:30;;;;;;;0.00;0.00;;;;;;;23.96;39.69;98670.63;4948190;28;20228;-63
2023/06/05 10:40:59;;;;;;;0.00;0.00;;;;;;;23.95;39.88;98663.69;4946035;28;20270;-63
2023/06/05 10:43:30;;;;;;;0.00;0.00;;;;;;;24.04;40.73;98664.13;4948365;28;20294;-63
2023/06/05 10:45:58;;;;;;;0.00;0.00;;;;;;;24.14;39.61;98663.53;4945204;28;20241;-63
2023/06/05 10:49:02;;;;;;;0.00;0.00;;;;;;;23.99;39.80;98667.53;4948152;28;20242;-63
2023/06/05 10:51:37;;;;;;;0.00;0.00;;;;;;;24.01;39.55;98657.44;4944851;28;20241;-63
2023/06/05 10:54:04;;;;;;;0.00;0.00;;;;;;;24.25;39.53;98648.50;4945469;28;20262;-63
2023/06/05 10:56:56;;;;;;;0.00;0.00;;;;;;;24.21;40.00;98663.38;4948210;28;20234;-63
2023/06/05 10:59:24;;;;;;;0.00;0.00;;;;;;;23.99;40.10;98648.84;4945747;28;20238;-63
2023/06/05 11:02:23;;;;;;;0.00;0.00;;;;;;;24.23;40.34;98655.94;4944873;28;20713;-63
2023/06/05 11:05:07;;;;;;;0.00;0.00;;;;;;;24.37;39.07;98640.44;4944993;28;20243;-63
2023/06/05 11:07:35;;;;;;;0.00;0.00;;;;;;;24.69;39.72;98639.88;4947890;28;20222;-63
2023/06/05 11:10:22;;;;;;;0.00;0.00;;;;;;;24.69;39.94;98643.38;4945271;28;20237;-63
2023/06/05 11:12:59;;;;;;;0.00;0.00;;;;;;;24.77;40.03;98642.16;4938990;28;20727;-63
2023/06/05 11:15:38;;;;;;;0.00;0.00;;;;;;;24.49;39.35;98641.16;4947850;28;20244;-63
2023/06/05 11:18:30;;;;;;;0.00;0.00;;;;;;;24.64;40.98;98639.78;4945706;28;20297;-63
2023/06/05 11:20:57;;;;;;;0.00;0.00;;;;;;;24.63;39.96;98641.66;4944553;28;20234;-63
2023/06/05 11:23:27;;;;;;;0.00;0.00;;;;;;;24.54;40.70;98643.13;4947433;28;20231;-63
2023/06/05 11:25:57;;;;;;;0.00;0.00;;;;;;;24.84;40.31;98628.66;4945037;28;20240;-63
2023/06/05 11:28:44;;;;;;;0.00;0.00;;;;;;;24.88;39.57;98627.13;4962064;28;20227;-63
2023/06/05 11:31:10;;;;;;;0.00;0.00;;;;;;;25.18;40.82;98628.59;4942956;28;20226;-63
2023/06/05 11:33:37;;;;;;;0.00;0.00;;;;;;;25.24;38.97;98632.94;4944377;28;20226;-63
2023/06/05 11:36:08;;;;;;;0.00;0.00;;;;;;;25.18;39.09;98640.09;4947551;28;20269;-63
2023/06/05 11:38:37;;;;;;;0.00;0.00;;;;;;;25.43;39.12;98638.81;4944165;28;20319;-63
2023/06/05 11:41:09;;;;;;;0.00;0.00;;;;;;;25.43;38.76;98633.47;4947504;28;20725;-63
2023/06/05 11:43:42;;;;;;;0.00;0.00;;;;;;;25.40;38.90;98627.81;4944502;28;20578;-63
2023/06/05 11:46:09;;;;;;;0.00;0.00;;;;;;;25.49;39.32;98626.34;4946641;28;20317;-63
2023/06/05 11:48:35;;;;;;;0.00;0.00;;;;;;;25.67;39.35;98637.78;4944024;28;20294;-63